createdAt,value
2022-10-10T00:03:23.184Z,100874.44
2022-10-10T00:08:25.088Z,100867.38
2022-10-10T00:13:27.179Z,100858.72
2022-10-10T00:18:29.817Z,100871.97
2022-10-10T00:23:31.778Z,100868.25
2022-10-10T00:28:33.899Z,100864.13
2022-10-10T00:33:36.857Z,100867.66
2022-10-10T00:38:38.717Z,100858.78
2022-10-10T00:43:40.952Z,100859.75
2022-10-10T00:54:34.229Z,100855.00
2022-10-10T00:59:39.074Z,100849.75
2022-10-10T01:04:45.618Z,100850.03
2022-10-10T01:09:51.353Z,100838.84
2022-10-10T01:14:59.038Z,100842.03
2022-10-10T01:20:37.968Z,100835.06
2022-10-10T01:26:10.528Z,100835.84
2022-10-10T01:31:16.218Z,100818.88
2022-10-10T01:36:28.096Z,100815.56
2022-10-10T01:41:58.995Z,100817.69
2022-10-10T01:47:01.093Z,100816.31
2022-10-10T01:52:51.360Z,100804.53
2022-10-10T01:58:18.341Z,100809.34
2022-10-10T02:03:29.718Z,100803.66
2022-10-10T02:08:45.369Z,100803.06
2022-10-10T02:13:54.792Z,100795.94
2022-10-10T02:19:00.123Z,100790.44
2022-10-10T02:24:07.231Z,100795.16
2022-10-10T02:29:20.202Z,100786.47
2022-10-10T02:34:26.332Z,100771.75
2022-10-10T02:39:33.749Z,100771.00
2022-10-10T02:44:37.378Z,100766.66
2022-10-10T02:49:39.444Z,100765.66
2022-10-10T02:54:41.735Z,100765.81
2022-10-10T02:59:43.493Z,100773.75
2022-10-10T03:04:45.459Z,100772.78
2022-10-10T03:09:47.498Z,100770.78
2022-10-10T03:14:49.449Z,100772.00
2022-10-10T03:19:51.273Z,100776.13
2022-10-10T03:24:53.239Z,100764.78
2022-10-10T03:29:55.148Z,100766.44
2022-10-10T03:34:56.965Z,100767.19
2022-10-10T03:39:58.756Z,100764.25
2022-10-10T03:45:00.555Z,100755.84
2022-10-10T03:50:02.367Z,100763.94
2022-10-10T03:55:04.513Z,100758.44
2022-10-10T04:00:06.898Z,100760.69
2022-10-10T04:05:08.971Z,100751.34
2022-10-10T04:10:11.103Z,100750.03
2022-10-10T04:15:13.123Z,100740.28
2022-10-10T04:20:14.942Z,100749.34
2022-10-10T04:25:16.815Z,100749.13
2022-10-10T04:30:19.063Z,100752.06
2022-10-10T04:35:20.811Z,100749.34
2022-10-10T04:40:26.440Z,100738.59
2022-10-10T04:45:28.726Z,100738.75
2022-10-10T04:50:30.873Z,100739.53
2022-10-10T04:55:32.751Z,100746.09
2022-10-10T05:00:34.699Z,100756.06
2022-10-10T05:05:36.438Z,100750.91
2022-10-10T05:10:39.506Z,100755.03
2022-10-10T05:15:41.915Z,100756.19
2022-10-10T05:20:44.303Z,100758.69
2022-10-10T05:25:49.265Z,100757.13
2022-10-10T05:30:52.542Z,100758.13
2022-10-10T05:36:02.010Z,100753.41
2022-10-10T05:41:04.301Z,100758.66
2022-10-10T05:46:06.339Z,100760.06
2022-10-10T05:51:08.465Z,100757.53
2022-10-10T05:56:11.705Z,100763.59
2022-10-10T06:01:13.581Z,100756.47
2022-10-10T06:06:15.595Z,100761.22
2022-10-10T06:11:19.357Z,100763.34
2022-10-10T06:16:26.220Z,100754.47
2022-10-10T06:21:28.060Z,100760.19
2022-10-10T06:26:29.987Z,100759.91
2022-10-10T06:31:31.871Z,100758.94
2022-10-10T06:36:33.934Z,100765.53
2022-10-10T06:41:36.088Z,100770.16
2022-10-10T06:46:38.196Z,100762.16
2022-10-10T06:51:40.456Z,100766.44
2022-10-10T06:56:42.467Z,100769.44
2022-10-10T07:01:44.451Z,100768.75
2022-10-10T07:06:46.305Z,100769.34
2022-10-10T07:11:48.231Z,100772.28
2022-10-10T07:16:50.078Z,100765.91
2022-10-10T07:21:52.278Z,100775.28
2022-10-10T07:27:03.432Z,100778.06
2022-10-10T07:32:06.976Z,100783.41
2022-10-10T07:37:08.883Z,100786.75
2022-10-10T07:42:10.898Z,100789.03
2022-10-10T07:47:12.969Z,100797.09
2022-10-10T07:52:14.857Z,100796.81
2022-10-10T07:57:16.682Z,100802.78
2022-10-10T08:02:18.854Z,100807.69
2022-10-10T08:07:21.503Z,100809.47
2022-10-10T08:12:23.464Z,100818.16
2022-10-10T08:17:25.423Z,100829.78
2022-10-10T08:22:27.418Z,100828.25
2022-10-10T08:27:29.242Z,100829.69
2022-10-10T08:32:31.210Z,100833.31
2022-10-10T08:37:37.240Z,100829.97
2022-10-10T08:42:49.084Z,100839.41
2022-10-10T08:48:10.483Z,100839.34
2022-10-10T08:53:17.323Z,100854.94
2022-10-10T08:58:19.012Z,100860.91
2022-10-10T09:03:34.072Z,100860.63
2022-10-10T09:08:35.905Z,100854.78
2022-10-10T09:13:47.796Z,100857.31
2022-10-10T09:19:24.702Z,100855.34
2022-10-10T09:24:33.846Z,100873.69
2022-10-10T09:29:49.760Z,100870.81
2022-10-10T09:34:59.550Z,100872.13
2022-10-10T09:40:11.993Z,100884.41
2022-10-10T09:45:30.847Z,100875.91
2022-10-10T09:50:32.662Z,100872.63
2022-10-10T09:55:39.026Z,100872.97
2022-10-10T10:00:40.979Z,100884.34
2022-10-10T10:05:53.174Z,100899.22
2022-10-10T10:10:58.876Z,100895.44
2022-10-10T10:16:04.221Z,100890.25
2022-10-10T10:21:10.979Z,100914.97
2022-10-10T10:26:41.499Z,100906.44
2022-10-10T10:31:57.914Z,100903.44
2022-10-10T10:37:14.604Z,100904.91
2022-10-10T10:42:28.752Z,100908.56
2022-10-10T10:47:49.654Z,100912.72
2022-10-10T10:53:00.748Z,100908.56
2022-10-10T11:05:24.737Z,100905.59
2022-10-10T11:09:50.812Z,100901.31
2022-10-10T11:15:13.489Z,100901.72
2022-10-10T11:20:42.082Z,100904.16
2022-10-10T11:25:58.824Z,100907.75
2022-10-10T11:31:08.979Z,100904.25
2022-10-10T11:36:20.332Z,100908.94
2022-10-10T11:41:35.180Z,100906.47
2022-10-10T11:46:45.726Z,100899.84
2022-10-10T11:52:28.886Z,100910.75
2022-10-10T11:57:42.565Z,100915.81
2022-10-10T12:02:46.526Z,100908.09
2022-10-10T12:07:57.236Z,100915.16
2022-10-10T12:13:16.851Z,100917.84
2022-10-10T12:18:44.150Z,100919.28
2022-10-10T12:24:14.246Z,100921.16
2022-10-10T12:29:47.769Z,100910.50
2022-10-10T12:34:52.637Z,100909.22
2022-10-10T12:40:03.914Z,100901.56
2022-10-10T12:45:38.264Z,100898.72
2022-10-10T12:50:42.286Z,100901.69
2022-10-10T12:56:14.343Z,100922.28
2022-10-10T13:01:25.953Z,100918.78
2022-10-10T13:06:39.653Z,100920.81
2022-10-10T13:12:27.608Z,100934.41
2022-10-10T13:17:32.850Z,100928.38
2022-10-10T13:22:37.199Z,100927.00
2022-10-10T13:27:39.048Z,100930.59
2022-10-10T13:32:41.074Z,100927.31
2022-10-10T13:37:44.185Z,100945.47
2022-10-10T13:42:50.092Z,100949.78
2022-10-10T13:48:12.509Z,100949.78
2022-10-10T13:53:26.274Z,100966.44
2022-10-10T13:58:50.196Z,100972.94
2022-10-10T14:03:54.123Z,100981.03
2022-10-10T14:09:07.343Z,100989.81
2022-10-10T14:14:17.211Z,100995.75
2022-10-10T14:19:19.735Z,100979.41
2022-10-10T14:24:21.610Z,100991.69
2022-10-10T14:29:23.548Z,101014.09
2022-10-10T14:34:25.625Z,101022.78
2022-10-10T14:39:27.543Z,101018.53
2022-10-10T14:44:29.609Z,101032.97
2022-10-10T14:49:31.562Z,101038.13
2022-10-10T14:54:33.279Z,101040.88
2022-10-10T14:59:48.476Z,101048.19
2022-10-10T15:04:51.529Z,101063.25
2022-10-10T15:15:15.089Z,101078.50
2022-10-10T15:20:17.054Z,101083.59
2022-10-10T15:25:18.921Z,101091.41
2022-10-10T15:30:20.936Z,101107.97
2022-10-10T15:35:26.342Z,101121.81
2022-10-10T15:40:29.566Z,101127.31
2022-10-10T15:45:54.508Z,101132.31
2022-10-10T15:50:53.483Z,101153.66
2022-10-10T15:55:55.224Z,101153.13
2022-10-10T16:00:57.186Z,101162.25
2022-10-10T16:06:02.889Z,101173.25
2022-10-10T16:11:10.880Z,101179.81
2022-10-10T16:16:12.983Z,101189.22
2022-10-10T16:21:20.238Z,101197.91
2022-10-10T16:26:26.790Z,101202.78
2022-10-10T16:31:30.058Z,101217.88
2022-10-10T16:36:34.573Z,101217.94
2022-10-10T16:41:52.438Z,101238.44
2022-10-10T16:46:54.411Z,101257.16
2022-10-10T16:51:56.322Z,101258.75
2022-10-10T16:56:58.340Z,101273.72
2022-10-10T17:02:00.378Z,101284.66
2022-10-10T17:07:02.793Z,101296.03
2022-10-10T17:12:04.859Z,101309.50
2022-10-10T17:17:12.082Z,101317.69
2022-10-10T17:22:14.695Z,101337.97
2022-10-10T17:27:16.438Z,101350.59
2022-10-10T17:32:18.537Z,101359.31
2022-10-10T17:37:20.318Z,101376.81
2022-10-10T17:42:22.255Z,101380.72
2022-10-10T17:47:24.139Z,101388.16
2022-10-10T17:52:26.350Z,101396.16
2022-10-10T17:57:28.470Z,101404.78
2022-10-10T18:02:30.506Z,101423.41
2022-10-10T18:07:32.349Z,101439.28
2022-10-10T18:12:34.275Z,101441.03
2022-10-10T18:17:36.267Z,101451.16
2022-10-10T18:22:38.464Z,101465.22
2022-10-10T18:27:40.572Z,101469.81
2022-10-10T18:32:42.406Z,101475.59
2022-10-10T18:37:44.363Z,101487.75
2022-10-10T18:42:46.817Z,101485.81
2022-10-10T18:47:48.654Z,101502.25
2022-10-10T18:52:51.049Z,101508.13
2022-10-10T18:57:52.947Z,101513.44
2022-10-10T19:02:54.863Z,101524.75
2022-10-10T19:07:56.637Z,101535.69
2022-10-10T19:12:58.615Z,101542.91
2022-10-10T19:18:01.522Z,101545.34
2022-10-10T19:23:03.224Z,101548.13
2022-10-10T19:28:06.581Z,101569.22
2022-10-10T19:33:09.458Z,101571.31
2022-10-10T19:38:11.502Z,101584.16
2022-10-10T19:43:13.574Z,101586.03
2022-10-10T19:48:15.793Z,101592.69
2022-10-10T19:53:18.710Z,101606.88
2022-10-10T19:58:20.486Z,101620.34
2022-10-10T20:03:22.525Z,101616.97
2022-10-10T20:08:24.468Z,101631.63
2022-10-10T20:13:26.656Z,101644.72
2022-10-10T20:18:28.757Z,101656.25
2022-10-10T20:23:31.122Z,101656.03
2022-10-10T20:28:33.564Z,101660.84
2022-10-10T20:33:35.489Z,101659.38
2022-10-10T20:38:37.823Z,101679.66
2022-10-10T20:43:39.846Z,101681.31
2022-10-10T20:48:42.337Z,101685.31
2022-10-10T20:53:44.468Z,101694.91
2022-10-10T20:58:46.732Z,101703.78
2022-10-10T21:03:49.135Z,101710.00
2022-10-10T21:08:52.643Z,101720.66
2022-10-10T21:13:57.438Z,101720.78
2022-10-10T21:19:00.536Z,101731.19
2022-10-10T21:24:04.638Z,101729.47
2022-10-10T21:29:06.512Z,101733.66
2022-10-10T21:34:11.191Z,101737.75
2022-10-10T21:39:14.512Z,101737.19
2022-10-10T21:44:16.907Z,101734.28
2022-10-10T21:49:18.801Z,101736.00
2022-10-10T21:54:20.472Z,101743.94
2022-10-10T21:59:22.314Z,101749.41
2022-10-10T22:04:28.683Z,101763.50
2022-10-10T22:09:30.850Z,101756.78
2022-10-10T22:14:32.628Z,101754.41
2022-10-10T22:19:36.058Z,101764.94
2022-10-10T22:24:38.007Z,101763.47
2022-10-10T22:29:39.762Z,101770.53
2022-10-10T22:34:41.557Z,101773.00
2022-10-10T22:39:43.463Z,101773.91
2022-10-10T22:44:45.412Z,101778.19
2022-10-10T22:49:47.258Z,101781.91
2022-10-10T22:54:49.107Z,101780.16
2022-10-10T22:59:50.877Z,101786.13
2022-10-10T23:04:52.719Z,101783.34
2022-10-10T23:09:54.608Z,101785.66
2022-10-10T23:14:56.523Z,101787.47
2022-10-10T23:19:58.299Z,101789.22
2022-10-10T23:25:00.240Z,101788.94
2022-10-10T23:30:03.457Z,101788.06
2022-10-10T23:35:05.701Z,101787.88
2022-10-10T23:40:08.431Z,101789.13
2022-10-10T23:45:10.726Z,101791.53
2022-10-10T23:50:12.920Z,101792.41
2022-10-10T23:55:15.054Z,101799.69
